Time;durP1;ratioP1;P1;durP2;ratioP2;P2;SDS_P1;SDS_P2;PMS_P1;PMS_P2;Temp;Humidity;BMP_temperature;BMP_pressure;BME280_temperature;BME280_humidity;BME280_pressure;Samples;Min_cycle;Max_cycle;Signal;HPM_P1;HPM_P2
2022/03/26 00:00:30;;;;;;;39.40;19.35;;;;;;;;;;4986344;28;20114;-85
2022/03/26 00:02:56;;;;;;;38.13;18.17;;;;;;;;;;4975189;28;20043;-87
2022/03/26 00:05:22;;;;;;;40.40;18.52;;;;;;;;;;4958201;28;20026;-87
2022/03/26 00:07:49;;;;;;;38.03;17.75;;;;;;;;;;4958100;28;20029;-87
2022/03/26 00:10:15;;;;;;;36.83;17.95;;;;;;;;;;5011244;28;20026;-86
2022/03/26 00:12:41;;;;;;;42.05;19.67;;;;;;;;;;4996555;28;20006;-87
2022/03/26 00:15:08;;;;;;;44.95;20.20;;;;;;;;;;5013204;28;20027;-87
2022/03/26 00:17:34;;;;;;;41.33;18.83;;;;;;;;;;4988526;28;20018;-86
2022/03/26 00:20:00;;;;;;;43.47;17.92;;;;;;;;;;4968079;28;20041;-87
2022/03/26 00:22:26;;;;;;;40.22;18.30;;;;;;;;;;4981211;28;20066;-87
2022/03/26 00:24:52;;;;;;;41.10;18.58;;;;;;;;;;4964608;28;20023;-88
2022/03/26 00:27:18;;;;;;;38.70;18.67;;;;;;;;;;4981736;28;20027;-87
2022/03/26 00:29:45;;;;;;;42.15;19.15;;;;;;;;;;4963278;28;20096;-87
2022/03/26 00:32:11;;;;;;;47.47;19.10;;;;;;;;;;4963361;28;20117;-87
2022/03/26 00:34:37;;;;;;;40.05;18.70;;;;;;;;;;4994485;28;20036;-88
2022/03/26 00:37:04;;;;;;;41.42;19.52;;;;;;;;;;5000620;28;20085;-86
2022/03/26 00:39:30;;;;;;;43.97;19.55;;;;;;;;;;4987148;28;20510;-88
2022/03/26 00:41:57;;;;;;;42.00;18.50;;;;;;;;;;4963122;28;20031;-87
2022/03/26 00:44:23;;;;;;;42.78;20.00;;;;;;;;;;4963911;28;20113;-87
2022/03/26 00:46:49;;;;;;;41.28;18.88;;;;;;;;;;4964201;28;20066;-88
2022/03/26 00:49:15;;;;;;;40.53;18.25;;;;;;;;;;4981359;28;20050;-87
2022/03/26 00:51:42;;;;;;;35.40;17.42;;;;;;;;;;4963256;28;20027;-88
2022/03/26 00:54:12;;;;;;;35.58;18.38;;;;;;;;;;4980714;28;20107;-87
2022/03/26 00:56:38;;;;;;;34.20;17.73;;;;;;;;;;4980745;28;20140;-88
2022/03/26 00:59:04;;;;;;;37.65;17.55;;;;;;;;;;4988792;28;20471;-88
2022/03/26 01:01:31;;;;;;;38.13;18.27;;;;;;;;;;4997992;28;20033;-87
2022/03/26 01:03:58;;;;;;;42.22;17.23;;;;;;;;;;4998867;28;20037;-86
2022/03/26 01:06:24;;;;;;;41.80;17.85;;;;;;;;;;4979736;28;20023;-87
2022/03/26 01:08:50;;;;;;;41.13;18.85;;;;;;;;;;4980045;28;20051;-87
2022/03/26 01:11:17;;;;;;;36.20;17.85;;;;;;;;;;4978165;28;20038;-87
2022/03/26 01:13:43;;;;;;;36.95;18.00;;;;;;;;;;4979105;28;20412;-87
2022/03/26 01:16:09;;;;;;;40.55;18.00;;;;;;;;;;4978784;28;20105;-87
2022/03/26 01:18:36;;;;;;;37.40;17.88;;;;;;;;;;4979107;28;20034;-88
2022/03/26 01:21:02;;;;;;;37.85;17.90;;;;;;;;;;4978583;28;20490;-87
2022/03/26 01:23:28;;;;;;;45.28;19.20;;;;;;;;;;4974904;28;20039;-88
2022/03/26 01:25:54;;;;;;;35.75;17.45;;;;;;;;;;4998154;28;20149;-86
2022/03/26 01:28:20;;;;;;;34.10;17.30;;;;;;;;;;4987209;28;20073;-88
2022/03/26 01:30:46;;;;;;;41.85;17.90;;;;;;;;;;4977946;28;20506;-87
2022/03/26 01:33:13;;;;;;;33.90;17.50;;;;;;;;;;4977495;28;20534;-87
2022/03/26 01:35:39;;;;;;;36.15;16.73;;;;;;;;;;4977668;28;20019;-88
2022/03/26 01:38:06;;;;;;;37.15;18.25;;;;;;;;;;4983725;28;20106;-87
2022/03/26 01:40:32;;;;;;;32.70;15.48;;;;;;;;;;4996823;28;20061;-87
2022/03/26 01:42:59;;;;;;;34.88;16.98;;;;;;;;;;4978419;28;20031;-88
2022/03/26 01:45:27;;;;;;;37.53;16.23;;;;;;;;;;4996874;28;20027;-87
2022/03/26 01:47:53;;;;;;;42.38;16.40;;;;;;;;;;4969617;28;20069;-86
2022/03/26 01:50:19;;;;;;;37.05;16.63;;;;;;;;;;4958435;28;20031;-87
2022/03/26 01:52:46;;;;;;;36.15;18.17;;;;;;;;;;4976816;28;20521;-87
2022/03/26 01:55:12;;;;;;;34.63;16.23;;;;;;;;;;4958665;28;20167;-87
2022/03/26 01:57:39;;;;;;;41.45;16.90;;;;;;;;;;4982596;28;20088;-87
2022/03/26 02:00:08;;;;;;;39.22;17.58;;;;;;;;;;4977913;28;20121;-86
2022/03/26 02:02:34;;;;;;;39.22;17.83;;;;;;;;;;4996322;28;20034;-87
2022/03/26 02:05:00;;;;;;;35.78;16.92;;;;;;;;;;4995611;28;20037;-87
2022/03/26 02:07:26;;;;;;;31.23;15.25;;;;;;;;;;4977310;28;20022;-87
2022/03/26 02:09:52;;;;;;;34.50;16.60;;;;;;;;;;4995414;28;20037;-87
2022/03/26 02:12:30;;;;;;;36.08;18.27;;;;;;;;;;4977246;28;20053;-87
2022/03/26 02:14:58;;;;;;;41.05;16.50;;;;;;;;;;4994934;28;20081;-86
2022/03/26 02:17:24;;;;;;;35.95;16.83;;;;;;;;;;4976745;28;20497;-86
2022/03/26 02:19:54;;;;;;;35.53;17.17;;;;;;;;;;4979488;28;20041;-86
2022/03/26 02:22:20;;;;;;;36.47;17.73;;;;;;;;;;4998548;28;20049;-87
2022/03/26 02:24:47;;;;;;;38.22;17.48;;;;;;;;;;4998040;28;20030;-85
2022/03/26 02:27:13;;;;;;;39.70;16.98;;;;;;;;;;4993212;28;20093;-87
2022/03/26 02:29:39;;;;;;;40.97;16.80;;;;;;;;;;4979185;28;20033;-86
2022/03/26 02:32:06;;;;;;;41.95;17.77;;;;;;;;;;4960624;28;20129;-86
2022/03/26 02:34:32;;;;;;;37.55;16.13;;;;;;;;;;4979335;28;20027;-87
2022/03/26 02:36:58;;;;;;;37.88;17.02;;;;;;;;;;4979272;28;20031;-87
2022/03/26 02:39:25;;;;;;;38.17;18.05;;;;;;;;;;4978323;28;20031;-87
2022/03/26 02:41:51;;;;;;;32.85;16.98;;;;;;;;;;4960103;28;20427;-86
2022/03/26 02:44:17;;;;;;;40.83;17.45;;;;;;;;;;4960819;28;20023;-87
2022/03/26 02:46:46;;;;;;;39.00;16.50;;;;;;;;;;4977989;28;20019;-87
2022/03/26 02:49:15;;;;;;;36.47;16.55;;;;;;;;;;4978436;28;20026;-88
2022/03/26 02:51:42;;;;;;;40.67;18.08;;;;;;;;;;4993188;28;20034;-87
2022/03/26 02:54:18;;;;;;;38.55;17.33;;;;;;;;;;4997574;28;20493;-86
2022/03/26 02:56:51;;;;;;;37.78;17.75;;;;;;;;;;4977896;28;20487;-88
2022/03/26 02:59:18;;;;;;;37.47;17.45;;;;;;;;;;4960780;28;20054;-87
2022/03/26 03:01:47;;;;;;;40.38;16.85;;;8.40;62.40;;;;;;4966116;28;20026;-87
2022/03/26 03:04:13;;;;;;;37.35;16.88;;;6.30;75.00;;;;;;4960746;28;20519;-87
2022/03/26 03:06:39;;;;;;;35.33;17.30;;;6.10;74.50;;;;;;4961446;28;20081;-86
2022/03/26 03:09:06;;;;;;;40.80;18.35;;;6.00;74.30;;;;;;4997374;28;20026;-85
2022/03/26 03:11:33;;;;;;;38.83;17.23;;;6.00;74.00;;;;;;4996630;28;20171;-85
2022/03/26 03:13:59;;;;;;;32.83;16.73;;;6.00;74.50;;;;;;4979240;28;20108;-88
2022/03/26 03:16:24;;;;;;;36.78;17.77;;;6.10;74.50;;;;;;4966883;28;20038;-87
2022/03/26 03:18:51;;;;;;;30.58;15.90;;;6.00;75.50;;;;;;4990504;28;20018;-87
2022/03/26 03:21:17;;;;;;;36.50;17.40;;;5.90;75.20;;;;;;4977006;28;20026;-87
2022/03/26 03:23:43;;;;;;;34.60;16.38;;;5.90;75.00;;;;;;4978714;28;20030;-87
2022/03/26 03:26:08;;;;;;;43.78;17.77;;;5.90;75.40;;;;;;4977324;28;20388;-87
2022/03/26 03:28:34;;;;;;;36.20;16.77;;;5.70;77.00;;;;;;4976285;28;20026;-87
2022/03/26 03:31:00;;;;;;;41.00;17.20;;;5.60;77.60;;;;;;4974689;28;20381;-87
2022/03/26 03:33:26;;;;;;;34.30;15.85;;;5.70;78.10;;;;;;4976426;28;20034;-87
2022/03/26 03:35:52;;;;;;;33.97;16.83;;;5.60;78.50;;;;;;4958613;28;20019;-86
2022/03/26 03:38:18;;;;;;;34.15;16.60;;;5.60;78.50;;;;;;4958418;28;20058;-87
2022/03/26 03:40:43;;;;;;;32.40;15.45;;;5.60;78.60;;;;;;4957947;28;20034;-86
2022/03/26 03:43:09;;;;;;;36.20;16.50;;;5.60;78.40;;;;;;4958962;28;20087;-87
2022/03/26 03:45:34;;;;;;;47.88;16.70;;;5.60;79.20;;;;;;4962686;28;20486;-87
2022/03/26 03:48:00;;;;;;;37.58;17.52;;;5.50;78.90;;;;;;4995709;28;20371;-87
2022/03/26 03:50:26;;;;;;;43.22;16.88;;;5.50;79.20;;;;;;4974135;28;20029;-87
2022/03/26 03:52:52;;;;;;;32.55;16.20;;;5.50;78.10;;;;;;4975712;28;20086;-87
2022/03/26 03:55:18;;;;;;;34.53;16.27;;;5.40;76.60;;;;;;4976457;28;20026;-88
2022/03/26 03:57:44;;;;;;;42.05;17.10;;;5.50;76.00;;;;;;4975086;28;20475;-85
2022/03/26 04:00:12;;;;;;;37.60;16.40;;;5.50;76.80;;;;;;4975143;28;20031;-87
2022/03/26 04:02:38;;;;;;;42.55;16.77;;;5.50;75.20;;;;;;4957627;28;20053;-86
2022/03/26 04:05:04;;;;;;;36.03;16.20;;;5.40;76.40;;;;;;4957888;28;20023;-87
2022/03/26 04:07:30;;;;;;;34.78;15.43;;;5.30;75.90;;;;;;4992925;28;20030;-86
2022/03/26 04:09:56;;;;;;;40.70;16.35;;;5.40;74.80;;;;;;4994155;28;20031;-86
2022/03/26 04:12:21;;;;;;;33.50;15.70;;;5.40;73.90;;;;;;4979511;28;20072;-84
2022/03/26 04:14:47;;;;;;;42.05;18.10;;;5.40;73.50;;;;;;4975080;28;20033;-86
2022/03/26 04:17:13;;;;;;;39.70;16.77;;;5.40;75.20;;;;;;4989810;28;20613;-88
2022/03/26 04:19:42;;;;;;;43.45;16.17;;;5.40;75.70;;;;;;4957662;28;20183;-86
2022/03/26 04:22:07;;;;;;;39.70;15.88;;;5.40;75.60;;;;;;4975956;28;20077;-86
2022/03/26 04:24:35;;;;;;;41.28;16.88;;;5.40;74.50;;;;;;4994346;28;20030;-86
2022/03/26 04:27:01;;;;;;;38.17;15.68;;;5.40;74.60;;;;;;4994064;28;20085;-86
2022/03/26 04:29:27;;;;;;;33.53;15.75;;;5.30;74.80;;;;;;4993897;28;20041;-87
2022/03/26 04:31:52;;;;;;;38.45;16.85;;;5.30;75.00;;;;;;4993223;28;20037;-87
2022/03/26 04:34:19;;;;;;;32.28;16.38;;;5.30;76.00;;;;;;4976297;28;20061;-87
2022/03/26 04:36:44;;;;;;;38.03;16.10;;;5.30;76.80;;;;;;4979887;28;20057;-87
2022/03/26 04:39:10;;;;;;;38.13;16.58;;;5.30;77.10;;;;;;4974400;28;20023;-87
2022/03/26 04:41:35;;;;;;;37.47;16.02;;;5.20;77.10;;;;;;4957032;28;20030;-87
2022/03/26 04:44:02;;;;;;;36.97;16.50;;;5.10;77.30;;;;;;4974344;28;20035;-87
2022/03/26 04:46:28;;;;;;;47.95;16.95;;;5.10;76.30;;;;;;4974465;28;20118;-85
2022/03/26 04:48:54;;;;;;;34.67;16.35;;;5.10;78.10;;;;;;4974188;28;20058;-85
2022/03/26 04:51:20;;;;;;;37.15;15.48;;;5.00;78.80;;;;;;4975113;28;20042;-87
2022/03/26 04:53:45;;;;;;;36.45;16.35;;;4.90;79.60;;;;;;4974274;28;20046;-87
2022/03/26 04:56:11;;;;;;;33.45;15.20;;;4.80;81.70;;;;;;4975879;28;20031;-87
2022/03/26 04:58:37;;;;;;;39.17;17.77;;;4.90;79.70;;;;;;4976120;28;20122;-87
2022/03/26 05:01:02;;;;;;;38.47;17.13;;;4.90;80.80;;;;;;4975858;28;20036;-88
2022/03/26 05:03:28;;;;;;;36.20;16.30;;;4.80;80.20;;;;;;4977427;28;20033;-87
2022/03/26 05:05:54;;;;;;;34.63;16.52;;;4.90;83.00;;;;;;4995129;28;20022;-85
2022/03/26 05:08:19;;;;;;;38.95;16.92;;;4.80;84.50;;;;;;4975549;28;20026;-87
2022/03/26 05:10:46;;;;;;;42.10;16.63;;;4.70;86.10;;;;;;4987556;28;20035;-86
2022/03/26 05:13:11;;;;;;;31.38;15.65;;;4.70;85.30;;;;;;4973994;28;20070;-84
2022/03/26 05:15:37;;;;;;;36.45;17.10;;;4.50;87.10;;;;;;4957119;28;20023;-88
2022/03/26 05:18:03;;;;;;;34.88;15.93;;;4.50;89.40;;;;;;4985499;28;20026;-87
2022/03/26 05:20:29;;;;;;;39.75;17.55;;;4.50;89.80;;;;;;4975667;28;20054;-87
2022/03/26 05:22:55;;;;;;;34.72;16.63;;;4.40;90.30;;;;;;4956561;28;20027;-87
2022/03/26 05:25:21;;;;;;;35.47;15.70;;;4.50;88.80;;;;;;4958546;28;20026;-87
2022/03/26 05:27:49;;;;;;;36.53;16.70;;;4.50;87.40;;;;;;4993280;28;20033;-87
2022/03/26 05:30:15;;;;;;;39.35;15.88;;;4.50;86.20;;;;;;4972824;28;20041;-86
2022/03/26 05:32:41;;;;;;;40.33;15.77;;;4.60;83.70;;;;;;4956812;28;20084;-86
2022/03/26 05:35:11;;;;;;;44.38;15.65;;;4.60;83.10;;;;;;4974163;28;20022;-87
2022/03/26 05:37:41;;;;;;;35.70;15.57;;;4.60;83.60;;;;;;4975418;28;20019;-86
2022/03/26 05:40:08;;;;;;;34.65;15.60;;;4.70;81.30;;;;;;4955805;28;20031;-86
2022/03/26 05:42:35;;;;;;;38.40;14.35;;;4.70;81.40;;;;;;4973401;28;20035;-87
2022/03/26 05:45:02;;;;;;;40.85;16.00;;;4.70;82.40;;;;;;4973849;28;20463;-88
2022/03/26 05:47:30;;;;;;;35.92;16.20;;;4.70;81.30;;;;;;4975103;28;20089;-88
2022/03/26 05:49:55;;;;;;;39.85;16.15;;;4.80;81.20;;;;;;4974061;28;20058;-87
2022/03/26 05:52:21;;;;;;;40.45;15.48;;;4.90;81.20;;;;;;4973649;28;20034;-88
2022/03/26 05:54:46;;;;;;;39.17;16.88;;;4.80;81.20;;;;;;4977891;28;20109;-88
2022/03/26 05:57:13;;;;;;;38.92;15.55;;;4.90;81.50;;;;;;4994065;28;20089;-87
2022/03/26 05:59:39;;;;;;;37.13;16.02;;;4.90;81.20;;;;;;4997280;28;20486;-88
2022/03/26 06:02:04;;;;;;;36.35;15.85;;;4.90;82.10;;;;;;4996925;28;20058;-87
2022/03/26 06:04:30;;;;;;;36.00;15.43;;;4.90;80.20;;;;;;4996577;28;20466;-86
2022/03/26 06:06:59;;;;;;;34.50;16.58;;;5.10;78.70;;;;;;4967981;28;20058;-86
2022/03/26 06:09:24;;;;;;;33.38;15.57;;;5.10;78.90;;;;;;4977655;28;20097;-87
2022/03/26 06:11:50;;;;;;;35.10;16.48;;;5.10;78.70;;;;;;4959932;28;20475;-87
2022/03/26 06:14:18;;;;;;;33.33;15.60;;;5.10;78.00;;;;;;4978868;28;20030;-87
2022/03/26 06:16:45;;;;;;;37.33;15.25;;;5.20;76.40;;;;;;4999533;28;20054;-88
2022/03/26 06:19:12;;;;;;;36.65;16.42;;;5.30;77.40;;;;;;4996350;28;20019;-89
2022/03/26 06:21:37;;;;;;;40.05;16.85;;;5.30;76.10;;;;;;4980719;28;20030;-86
2022/03/26 06:24:04;;;;;;;29.67;14.63;;;5.30;75.40;;;;;;4981788;28;20038;-88
2022/03/26 06:26:30;;;;;;;35.90;16.25;;;5.50;74.70;;;;;;5000963;28;20053;-88
2022/03/26 06:28:57;;;;;;;39.15;16.60;;;5.50;74.70;;;;;;5004089;28;20054;-88
2022/03/26 06:31:23;;;;;;;40.85;14.65;;;5.50;73.70;;;;;;4989962;28;20031;-88
2022/03/26 06:33:49;;;;;;;36.47;16.25;;;5.60;74.10;;;;;;4993651;28;20036;-88
2022/03/26 06:36:15;;;;;;;38.65;15.50;;;5.70;73.10;;;;;;5000590;28;20049;-87
2022/03/26 06:38:41;;;;;;;33.95;15.85;;;5.90;72.20;;;;;;4971603;28;20109;-88
2022/03/26 06:41:09;;;;;;;40.47;16.00;;;5.90;72.50;;;;;;5002899;28;20068;-89
2022/03/26 06:43:36;;;;;;;33.20;15.88;;;5.90;72.20;;;;;;5002255;28;20037;-88
2022/03/26 06:46:03;;;;;;;45.08;16.85;;;6.00;72.20;;;;;;4997865;28;20031;-88
2022/03/26 06:48:29;;;;;;;39.38;15.77;;;6.10;72.40;;;;;;4992060;28;20026;-86
2022/03/26 06:50:54;;;;;;;41.95;17.75;;;6.10;73.00;;;;;;4989213;28;20037;-87
2022/03/26 06:53:20;;;;;;;38.58;16.92;;;6.20;72.80;;;;;;4962713;28;20023;-87
2022/03/26 06:56:19;;;;;;;33.50;14.60;;;6.20;71.70;;;;;;4998424;28;20026;-88
2022/03/26 06:59:21;;;;;;;42.47;16.67;;;6.40;71.30;;;;;;4920954;28;20035;-88
2022/03/26 07:01:46;;;;;;;36.08;14.80;;;6.50;70.80;;;;;;4963458;28;20031;-88
2022/03/26 07:08:17;;;;;;;37.72;15.68;;;6.70;68.70;;;;;;4963368;28;20086;-88
2022/03/26 07:11:03;;;;;;;34.10;14.90;;;6.70;68.90;;;;;;4963867;28;20042;-87
2022/03/26 07:13:29;;;;;;;38.38;15.23;;;6.80;68.90;;;;;;4981762;28;20463;-88
2022/03/26 07:15:55;;;;;;;41.90;16.92;;;7.00;68.50;;;;;;4980683;28;20037;-85
2022/03/26 07:18:26;;;;;;;38.53;16.13;;;7.00;67.80;;;;;;4967811;28;20049;-88
2022/03/26 07:21:59;;;;;;;36.63;14.75;;;7.00;68.10;;;;;;4999022;28;20065;-87
2022/03/26 07:24:30;;;;;;;43.30;15.10;;;7.10;67.80;;;;;;4939996;28;20500;-86
2022/03/26 07:27:39;;;;;;;36.47;16.53;;;7.10;67.10;;;;;;4963077;28;20042;-87
2022/03/26 07:30:06;;;;;;;35.88;15.70;;;7.20;68.00;;;;;;4956737;28;20290;-89
2022/03/26 07:36:09;;;;;;;34.83;15.32;;;7.50;67.10;;;;;;4932930;29;20067;-89
2022/03/26 07:38:35;;;;;;;36.28;15.57;;;7.60;66.60;;;;;;4918853;29;20027;-90
2022/03/26 07:41:00;;;;;;;36.95;15.43;;;7.70;66.40;;;;;;5226242;23;20492;-88
2022/03/26 07:43:26;;;;;;;44.45;15.23;;;7.80;65.80;;;;;;4997199;28;20121;-87
2022/03/26 07:46:59;;;;;;;39.42;16.83;;;7.90;66.10;;;;;;5015293;28;20482;-87
2022/03/26 07:49:56;;;;;;;38.67;15.15;;;8.10;65.00;;;;;;4968996;28;20044;-86
2022/03/26 07:52:44;;;;;;;55.90;25.42;;;8.40;64.70;;;;;;4984051;28;20041;-87
2022/03/26 07:55:10;;;;;;;42.92;15.93;;;;;;;;;;4980213;28;20125;-86
2022/03/26 07:57:55;;;;;;;38.53;15.88;;;;;;;;;;4957845;28;20034;-87
2022/03/26 08:01:06;;;;;;;;;;;;;;;;;;;;;
2022/03/26 08:03:35;;;;;;;35.10;15.45;;;;;;;;;;4974880;28;20401;-89
2022/03/26 08:12:49;;;;;;;38.70;15.77;;;;;;;;;;4894231;29;20404;-85
2022/03/26 08:18:19;;;;;;;39.88;16.85;;;;;;;;;;4994916;28;20037;-86
2022/03/26 08:21:01;;;;;;;35.35;16.20;;;;;;;;;;4975905;28;20027;-86
2022/03/26 08:23:43;;;;;;;36.25;17.15;;;;;;;;;;4974437;28;20082;-85
2022/03/26 08:29:13;;;;;;;37.05;15.98;;;;;;;;;;4975308;28;20062;-86
2022/03/26 08:31:39;;;;;;;33.88;16.10;;;;;;;;;;4975686;28;20467;-86
2022/03/26 08:34:34;;;;;;;52.30;16.83;;;;;;;;;;4985311;28;20125;-86
2022/03/26 08:37:00;;;;;;;33.22;15.35;;;;;;;;;;4958973;28;20035;-87
2022/03/26 08:39:26;;;;;;;36.17;17.15;;;;;;;;;;4993930;28;20033;-86
2022/03/26 08:42:11;;;;;;;34.55;16.30;;;;;;;;;;4993390;28;20034;-86
2022/03/26 08:45:08;;;;;;;38.78;16.63;;;;;;;;;;4974655;28;20039;-86
2022/03/26 08:47:34;;;;;;;35.75;17.02;;;;;;;;;;4973994;28;20030;-86
2022/03/26 08:50:00;;;;;;;35.50;17.23;;;;;;;;;;4972819;28;20097;-89
2022/03/26 08:52:26;;;;;;;39.90;16.15;;;;;;;;;;4974897;28;20471;-88
2022/03/26 08:54:52;;;;;;;40.70;17.38;;;;;;;;;;4985143;28;20024;-88
2022/03/26 08:57:18;;;;;;;36.70;18.00;;;;;;;;;;4976108;28;20390;-86
2022/03/26 08:59:45;;;;;;;40.55;18.05;;;;;;;;;;4977601;28;20026;-85
2022/03/26 09:02:11;;;;;;;34.28;16.58;;;;;;;;;;4995369;28;20045;-86
2022/03/26 09:04:37;;;;;;;36.63;17.08;;;;;;;;;;4981724;28;20086;-86
2022/03/26 09:07:03;;;;;;;35.67;16.95;;;;;;;;;;4958097;28;20033;-84
2022/03/26 09:09:29;;;;;;;36.42;18.27;;;;;;;;;;4959035;28;20391;-83
2022/03/26 09:11:55;;;;;;;41.67;18.42;;;;;;;;;;4977986;28;20097;-85
2022/03/26 09:14:21;;;;;;;36.50;16.67;;;;;;;;;;4977929;28;20524;-86
2022/03/26 09:16:47;;;;;;;32.22;17.10;;;;;;;;;;4994952;28;20080;-84
2022/03/26 09:19:13;;;;;;;35.35;17.60;;;;;;;;;;4975158;28;20033;-82
2022/03/26 09:21:40;;;;;;;35.03;17.98;;;;;;;;;;4983789;28;20034;-86
2022/03/26 09:24:06;;;;;;;40.58;18.83;;;;;;;;;;4993297;28;20586;-85
2022/03/26 09:26:32;;;;;;;42.35;20.25;;;;;;;;;;4993896;28;20029;-85
2022/03/26 09:28:58;;;;;;;36.97;18.98;;;;;;;;;;4980594;28;20058;-85
2022/03/26 09:31:24;;;;;;;35.60;18.73;;;;;;;;;;4965948;28;20023;-87
2022/03/26 09:33:50;;;;;;;41.50;20.77;;;;;;;;;;4963431;28;20058;-85
2022/03/26 09:36:16;;;;;;;40.47;19.33;;;;;;;;;;4962746;28;20023;-87
2022/03/26 09:38:42;;;;;;;41.03;20.65;;;;;;;;;;4979868;28;20050;-86
2022/03/26 09:41:09;;;;;;;40.55;20.25;;;;;;;;;;4979898;28;20027;-86
2022/03/26 09:43:36;;;;;;;40.00;21.25;;;;;;;;;;4962515;28;20557;-85
2022/03/26 09:46:02;;;;;;;41.88;22.70;;;;;;;;;;4980023;28;20077;-87
2022/03/26 09:48:28;;;;;;;42.95;21.95;;;;;;;;;;4979869;28;20031;-88
2022/03/26 09:50:56;;;;;;;39.80;21.45;;;;;;;;;;4979679;28;20034;-85
2022/03/26 09:53:22;;;;;;;41.17;22.80;;;;;;;;;;4962726;28;20105;-86
2022/03/26 09:55:48;;;;;;;42.15;21.63;;;;;;;;;;4979777;28;20482;-86
2022/03/26 09:58:14;;;;;;;37.85;22.58;;;;;;;;;;4980067;28;20119;-86
2022/03/26 10:00:40;;;;;;;42.38;23.77;;;;;;;;;;4980115;28;20023;-86
2022/03/26 10:03:06;;;;;;;38.80;21.85;;;;;;;;;;4981363;28;20107;-85
2022/03/26 10:05:34;;;;;;;38.78;23.08;;;;;;;;;;4982237;28;20503;-88
2022/03/26 10:08:14;;;;;;;43.72;23.80;;;;;;;;;;4980148;28;20061;-86
2022/03/26 10:10:47;;;;;;;43.42;23.02;;;;;;;;;;4962170;28;20035;-82
2022/03/26 10:13:18;;;;;;;42.10;23.00;;;;;;;;;;4962426;28;20038;-86
2022/03/26 10:16:05;;;;;;;46.17;24.33;;;;;;;;;;4979785;28;20081;-85
2022/03/26 10:18:32;;;;;;;46.28;25.85;;;;;;;;;;4997880;28;20061;-86
2022/03/26 10:20:59;;;;;;;41.65;24.45;;;;;;;;;;4981461;28;20029;-86
2022/03/26 10:23:29;;;;;;;44.85;27.25;;;;;;;;;;4999100;28;20037;-86
2022/03/26 10:26:08;;;;;;;48.40;26.15;;;;;;;;;;4998935;28;20422;-83
2022/03/26 10:28:34;;;;;;;43.10;25.38;;;;;;;;;;4999084;28;20029;-85
2022/03/26 10:34:07;;;;;;;43.17;25.90;;;;;;;;;;4999802;28;20402;-86
2022/03/26 10:36:37;;;;;;;48.03;25.63;;;;;;;;;;5000891;28;20080;-86
2022/03/26 10:39:05;;;;;;;49.97;26.88;;;;;;;;;;4998345;28;20336;-86
2022/03/26 10:41:32;;;;;;;45.05;26.27;;;;;;;;;;4996618;28;20054;-86
2022/03/26 10:44:14;;;;;;;48.85;27.67;;;;;;;;;;4996901;28;20035;-86
2022/03/26 10:46:41;;;;;;;40.20;25.77;;;;;;;;;;4996023;28;20033;-87
2022/03/26 10:49:07;;;;;;;43.55;25.27;;;;;;;;;;4995774;28;20034;-86
2022/03/26 10:51:41;;;;;;;51.60;27.17;;;;;;;;;;4977945;28;20058;-87
2022/03/26 10:54:15;;;;;;;39.80;25.52;;;;;;;;;;4995846;28;20030;-86
2022/03/26 10:56:42;;;;;;;43.85;25.40;;;;;;;;;;4978156;28;20100;-88
2022/03/26 10:59:08;;;;;;;43.80;26.33;;;;;;;;;;4996122;28;20031;-86
2022/03/26 11:01:35;;;;;;;42.70;25.95;;;;;;;;;;4978253;28;20026;-86
2022/03/26 11:04:01;;;;;;;43.63;26.30;;;;;;;;;;4978106;28;20030;-86
2022/03/26 11:06:28;;;;;;;47.42;25.10;;;;;;;;;;4989481;28;20567;-86
2022/03/26 11:09:00;;;;;;;43.10;25.10;;;;;;;;;;4991014;28;20031;-85
2022/03/26 11:11:27;;;;;;;48.33;26.10;;;;;;;;;;4995283;28;20113;-88
2022/03/26 11:13:55;;;;;;;48.35;24.95;;;;;;;;;;4997422;28;20069;-83
2022/03/26 11:16:30;;;;;;;54.03;24.45;;;;;;;;;;4997127;28;20109;-86
2022/03/26 11:18:56;;;;;;;38.95;23.60;;;;;;;;;;4984009;28;20035;-84
2022/03/26 11:21:24;;;;;;;42.15;24.95;;;;;;;;;;4982026;28;20034;-83
2022/03/26 11:23:53;;;;;;;46.25;23.77;;;;;;;;;;4982619;28;20031;-85
2022/03/26 11:26:38;;;;;;;38.90;23.83;;;;;;;;;;4982036;28;20041;-85
2022/03/26 11:29:13;;;;;;;42.63;23.90;;;;;;;;;;4981617;28;20045;-88
2022/03/26 11:31:45;;;;;;;43.33;24.55;;;;;;;;;;4980956;28;20046;-84
2022/03/26 11:34:11;;;;;;;42.80;24.27;;;;;;;;;;4965168;28;20487;-84
2022/03/26 11:36:37;;;;;;;44.90;24.05;;;;;;;;;;4965027;28;20030;-86
2022/03/26 11:39:11;;;;;;;35.72;23.65;;;;;;;;;;4965204;28;20121;-85
2022/03/26 11:41:38;;;;;;;41.53;22.55;;;;;;;;;;4981503;28;20046;-85
2022/03/26 11:44:06;;;;;;;40.50;23.77;;;;;;;;;;4982155;28;20019;-86
2022/03/26 11:52:19;;;;;;;35.97;23.33;;;;;;;;;;4980906;28;20041;-87
2022/03/26 11:54:46;;;;;;;42.00;23.33;;;;;;;;;;4965069;28;20031;-83
2022/03/26 11:57:12;;;;;;;40.00;22.52;;;;;;;;;;4982116;28;20404;-85
2022/03/26 11:59:39;;;;;;;38.40;23.35;;;;;;;;;;4981640;28;20087;-85
2022/03/26 12:02:16;;;;;;;39.00;23.15;;;;;;;;;;4963938;28;20348;-86
2022/03/26 12:04:49;;;;;;;36.17;22.52;;;;;;;;;;4982273;28;20102;-85
2022/03/26 12:07:15;;;;;;;42.03;22.98;;;;;;;;;;4982027;28;20054;-83
2022/03/26 12:09:42;;;;;;;41.88;24.95;;;;;;;;;;4982831;28;20070;-83
2022/03/26 12:12:10;;;;;;;39.50;22.42;;;;;;;;;;4982759;28;20463;-84
2022/03/26 12:14:56;;;;;;;40.03;22.88;;;;;;;;;;4973682;28;20085;-85
2022/03/26 12:17:40;;;;;;;38.13;22.90;;;;;;;;;;4983936;28;20063;-86
2022/03/26 12:20:45;;;;;;;43.03;23.48;;;;;;;;;;5000293;28;20030;-84
2022/03/26 12:23:11;;;;;;;36.50;22.33;;;;;;;;;;4935659;29;20024;-86
2022/03/26 12:25:38;;;;;;;33.17;21.42;;;;;;;;;;4925368;29;20040;-84
2022/03/26 12:28:05;;;;;;;36.28;21.45;;;;;;;;;;4952866;28;20039;-85
2022/03/26 12:30:31;;;;;;;32.58;21.23;;;;;;;;;;4984034;28;20031;-84
2022/03/26 12:32:59;;;;;;;32.72;22.13;;;;;;;;;;4983056;28;20487;-85
2022/03/26 12:35:26;;;;;;;35.17;21.50;;;;;;;;;;4983978;28;20022;-85
2022/03/26 12:37:52;;;;;;;35.55;21.58;;;;;;;;;;4983280;28;20106;-86
2022/03/26 12:40:19;;;;;;;34.67;22.13;;;;;;;;;;4982512;28;20396;-86
2022/03/26 12:42:45;;;;;;;34.90;19.63;;;;;;;;;;4982568;28;20043;-85
2022/03/26 12:45:15;;;;;;;38.17;21.17;;;;;;;;;;4965230;28;20038;-86
2022/03/26 12:47:45;;;;;;;37.75;21.73;;;;;;;;;;4983151;28;20030;-85
2022/03/26 12:50:11;;;;;;;34.47;20.27;;;;;;;;;;4982756;28;20110;-85
2022/03/26 12:52:37;;;;;;;35.03;20.10;;;;;;;;;;4964992;28;20031;-85
2022/03/26 12:55:04;;;;;;;36.42;19.52;;;;;;;;;;4981878;28;20023;-85
2022/03/26 13:00:21;;;;;;;30.92;18.83;;;;;;;;;;4981887;28;20038;-85
2022/03/26 13:02:47;;;;;;;37.10;19.75;;;;;;;;;;4981504;28;20468;-88
2022/03/26 13:05:13;;;;;;;34.17;19.95;;;;;;;;;;4964422;28;20031;-86
2022/03/26 13:07:39;;;;;;;36.22;19.80;;;;;;;;;;4982321;28;20026;-85
2022/03/26 13:10:06;;;;;;;35.30;18.27;;;;;;;;;;4964284;28;20031;-84
2022/03/26 13:12:31;;;;;;;34.17;20.27;;;;;;;;;;4964321;28;20499;-85
2022/03/26 13:14:58;;;;;;;32.17;20.08;;;;;;;;;;4964440;28;20023;-85
2022/03/26 13:17:24;;;;;;;28.10;17.95;;;;;;;;;;4987892;28;20014;-84
2022/03/26 13:19:56;;;;;;;33.05;17.30;;;;;;;;;;4970879;28;20547;-85
2022/03/26 13:22:26;;;;;;;35.45;18.67;;;;;;;;;;4981018;28;20015;-84
2022/03/26 13:24:53;;;;;;;34.15;17.40;;;;;;;;;;4981532;28;20079;-84
2022/03/26 13:27:20;;;;;;;32.72;17.58;;;;;;;;;;4981186;28;20042;-85
2022/03/26 13:29:46;;;;;;;30.77;18.23;;;;;;;;;;4981997;28;20027;-85
2022/03/26 13:32:12;;;;;;;40.88;17.08;;;;;;;;;;4981296;28;20033;-86
2022/03/26 13:34:39;;;;;;;33.75;16.70;;;;;;;;;;4981695;28;20077;-84
2022/03/26 13:37:17;;;;;;;32.33;17.45;;;;;;;;;;4963243;28;20038;-82
2022/03/26 13:39:44;;;;;;;35.10;18.42;;;;;;;;;;4980953;28;20023;-84
2022/03/26 13:42:15;;;;;;;30.58;17.73;;;;;;;;;;4963421;28;20170;-87
2022/03/26 13:44:42;;;;;;;32.67;18.27;;;;;;;;;;4981874;28;20026;-85
2022/03/26 13:47:08;;;;;;;36.25;18.35;;;;;;;;;;4963628;28;20281;-86
2022/03/26 13:49:35;;;;;;;30.67;17.13;;;;;;;;;;4981566;28;20050;-88
2022/03/26 13:52:07;;;;;;;26.02;15.77;;;;;;;;;;4980028;28;20031;-85
2022/03/26 13:54:34;;;;;;;30.45;15.00;;;;;;;;;;4981460;28;20468;-85
2022/03/26 13:57:04;;;;;;;32.28;16.98;;;;;;;;;;4981156;28;20027;-88
2022/03/26 13:59:35;;;;;;;29.67;16.63;;;;;;;;;;4981664;28;20053;-86
2022/03/26 14:02:01;;;;;;;;;;;;;;;;;;4981410;28;20148;-85
2022/03/26 14:04:28;;;;;;;34.58;16.00;;;;;;;;;;4981061;28;19953;-85
2022/03/26 14:06:54;;;;;;;34.20;15.85;;;;;;;;;;4963698;28;20027;-82
2022/03/26 14:09:22;;;;;;;31.30;16.38;;;;;;;;;;4981402;28;20023;-89
2022/03/26 14:11:48;;;;;;;47.30;16.50;;;;;;;;;;4980218;28;20062;-85
2022/03/26 14:14:14;;;;;;;28.85;15.15;;;;;;;;;;4982819;28;20039;-85
2022/03/26 14:16:40;;;;;;;28.42;15.85;;;;;;;;;;4984612;28;20026;-86
2022/03/26 14:19:06;;;;;;;28.60;15.25;;;;;;;;;;4997547;28;20390;-84
2022/03/26 14:21:32;;;;;;;35.20;15.27;;;;;;;;;;4966187;28;20038;-84